createdAt,value
2023-03-19T00:00:52.396Z,6.20
2023-03-19T00:03:20.276Z,5.60
2023-03-19T00:05:54.026Z,4.63
2023-03-19T00:08:22.894Z,5.47
2023-03-19T00:10:51.097Z,5.07
2023-03-19T00:13:19.798Z,5.30
2023-03-19T00:15:47.995Z,5.17
2023-03-19T00:18:16.100Z,6.07
2023-03-19T00:20:44.622Z,5.10
2023-03-19T00:23:13.741Z,5.43
2023-03-19T00:25:42.135Z,5.67
2023-03-19T00:28:10.308Z,5.70
2023-03-19T00:30:38.168Z,5.33
2023-03-19T00:33:06.098Z,5.57
2023-03-19T00:35:34.423Z,4.80
2023-03-19T00:38:02.270Z,4.57
2023-03-19T00:40:31.276Z,4.70
2023-03-19T00:42:59.036Z,5.40
2023-03-19T00:45:27.194Z,4.80
2023-03-19T00:47:54.954Z,4.80
2023-03-19T00:50:22.736Z,4.77
2023-03-19T00:52:51.222Z,4.63
2023-03-19T00:55:19.290Z,4.73
2023-03-19T00:57:48.386Z,4.90
2023-03-19T01:00:17.346Z,4.40
2023-03-19T01:02:45.075Z,4.07
2023-03-19T01:05:13.333Z,4.80
2023-03-19T01:07:41.379Z,4.13
2023-03-19T01:10:10.781Z,4.53
2023-03-19T01:12:38.625Z,3.70
2023-03-19T01:15:09.253Z,4.87
2023-03-19T01:17:37.296Z,4.20
2023-03-19T01:20:08.796Z,4.40
2023-03-19T01:22:36.994Z,4.27
2023-03-19T01:25:05.029Z,3.60
2023-03-19T01:27:33.018Z,4.90
2023-03-19T01:30:00.875Z,4.13
2023-03-19T01:32:30.054Z,4.20
2023-03-19T01:34:57.875Z,4.10
2023-03-19T01:37:25.736Z,3.70
2023-03-19T01:39:53.503Z,3.83
2023-03-19T01:42:21.548Z,4.03
2023-03-19T01:44:49.391Z,3.90
2023-03-19T01:47:19.219Z,4.10
2023-03-19T01:49:54.218Z,3.00
2023-03-19T01:52:24.023Z,2.70
2023-03-19T01:54:52.599Z,3.17
2023-03-19T01:57:20.946Z,2.80
2023-03-19T01:59:52.597Z,2.90
2023-03-19T02:02:25.195Z,2.63
2023-03-19T02:04:59.098Z,2.63
2023-03-19T02:07:27.484Z,2.50
2023-03-19T02:09:55.955Z,2.80
2023-03-19T02:12:23.709Z,3.10
2023-03-19T02:14:56.101Z,2.97
2023-03-19T02:17:30.640Z,2.30
2023-03-19T02:20:06.208Z,3.00
2023-03-19T02:22:34.331Z,3.30
2023-03-19T02:25:07.143Z,2.50
2023-03-19T02:27:36.232Z,3.00
2023-03-19T02:30:19.391Z,2.80
2023-03-19T02:32:47.569Z,3.07
2023-03-19T02:35:15.661Z,2.60
2023-03-19T02:37:43.501Z,3.00
2023-03-19T02:40:17.054Z,2.80
2023-03-19T02:42:46.052Z,3.50
2023-03-19T02:45:14.465Z,3.27
2023-03-19T02:47:42.159Z,3.03
2023-03-19T02:50:11.271Z,2.77
2023-03-19T02:52:39.091Z,2.73
2023-03-19T02:55:08.054Z,3.70
2023-03-19T02:57:35.817Z,2.90
2023-03-19T03:00:06.133Z,3.50
2023-03-19T03:02:33.907Z,3.37
2023-03-19T03:05:01.723Z,3.83
2023-03-19T03:07:29.513Z,3.58
2023-03-19T03:09:57.314Z,4.60
2023-03-19T03:12:25.232Z,4.17
2023-03-19T03:14:52.902Z,3.60
2023-03-19T03:17:22.089Z,3.20
2023-03-19T03:19:49.903Z,3.65
2023-03-19T03:22:17.601Z,3.80
2023-03-19T03:24:45.699Z,4.10
2023-03-19T03:27:13.387Z,4.00
2023-03-19T03:29:41.513Z,3.37
2023-03-19T03:32:09.490Z,3.57
2023-03-19T03:34:38.621Z,3.70
2023-03-19T03:37:06.840Z,3.90
2023-03-19T03:39:34.629Z,3.97
2023-03-19T03:42:02.446Z,3.47
2023-03-19T03:44:30.683Z,4.00
2023-03-19T03:46:58.445Z,3.63
2023-03-19T03:49:26.351Z,4.33
2023-03-19T03:51:55.651Z,3.93
2023-03-19T03:54:23.416Z,3.90
2023-03-19T03:56:51.317Z,3.60
2023-03-19T03:59:19.276Z,3.50
2023-03-19T04:01:47.059Z,4.00
2023-03-19T04:04:15.505Z,4.23
2023-03-19T04:06:43.290Z,4.40
2023-03-19T04:09:12.359Z,4.43
2023-03-19T04:11:42.501Z,3.67
2023-03-19T04:14:10.405Z,4.23
2023-03-19T04:16:39.326Z,4.20
2023-03-19T04:19:07.648Z,3.60
2023-03-19T04:21:35.383Z,4.00
2023-03-19T04:24:03.686Z,3.60
2023-03-19T04:26:32.820Z,3.70
2023-03-19T04:29:00.560Z,3.60
2023-03-19T04:31:28.463Z,3.50
2023-03-19T04:33:56.797Z,4.10
2023-03-19T04:36:24.650Z,3.50
2023-03-19T04:38:52.653Z,3.87
2023-03-19T04:41:20.443Z,3.30
2023-03-19T04:43:49.504Z,4.20
2023-03-19T04:46:17.279Z,3.03
2023-03-19T04:48:45.461Z,3.77
2023-03-19T04:51:13.218Z,4.47
2023-03-19T04:53:40.968Z,3.35
2023-03-19T04:56:09.335Z,3.53
2023-03-19T04:58:37.081Z,3.50
2023-03-19T05:01:06.601Z,3.87
2023-03-19T05:03:34.490Z,3.67
2023-03-19T05:06:02.303Z,3.70
2023-03-19T05:08:30.064Z,4.00
2023-03-19T05:10:57.916Z,4.10
2023-03-19T05:13:25.686Z,4.20
2023-03-19T05:16:10.552Z,3.80
2023-03-19T05:18:41.113Z,3.75
2023-03-19T05:21:24.082Z,3.43
2023-03-19T05:23:54.648Z,3.38
2023-03-19T05:26:22.547Z,3.77
2023-03-19T05:28:50.370Z,3.70
2023-03-19T05:31:19.582Z,3.77
2023-03-19T05:33:47.698Z,4.17
2023-03-19T05:36:16.018Z,3.40
2023-03-19T05:38:43.733Z,3.33
2023-03-19T05:41:11.416Z,3.38
2023-03-19T05:43:39.130Z,3.47
2023-03-19T05:46:06.932Z,3.47
2023-03-19T05:48:36.228Z,2.77
2023-03-19T05:51:04.126Z,3.80
2023-03-19T05:53:31.843Z,3.17
2023-03-19T05:55:59.680Z,3.00
2023-03-19T05:58:28.321Z,3.17
2023-03-19T06:00:57.930Z,3.33
2023-03-19T06:03:26.645Z,3.40
2023-03-19T06:05:55.873Z,2.83
2023-03-19T06:08:23.736Z,3.07
2023-03-19T06:10:53.438Z,2.80
2023-03-19T06:13:21.363Z,2.70
2023-03-19T06:15:50.433Z,3.17
2023-03-19T06:18:18.720Z,3.93
2023-03-19T06:20:48.177Z,2.87
2023-03-19T06:23:17.445Z,3.40
2023-03-19T06:25:45.756Z,3.40
2023-03-19T06:28:13.624Z,3.20
2023-03-19T06:30:42.055Z,3.30
2023-03-19T06:33:09.953Z,2.73
2023-03-19T06:35:37.792Z,3.23
2023-03-19T06:38:06.260Z,3.47
2023-03-19T06:40:35.988Z,3.10
2023-03-19T06:43:03.990Z,3.30
2023-03-19T06:45:31.827Z,2.57
2023-03-19T06:47:59.589Z,3.17
2023-03-19T06:50:27.440Z,2.17
2023-03-19T06:52:55.572Z,2.40
2023-03-19T06:55:23.365Z,2.50
2023-03-19T06:57:52.548Z,2.67
2023-03-19T07:00:21.031Z,2.70
2023-03-19T07:02:48.981Z,2.97
2023-03-19T07:05:16.746Z,2.50
2023-03-19T07:07:44.488Z,2.53
2023-03-19T07:10:12.601Z,2.40
2023-03-19T07:12:40.548Z,2.17
2023-03-19T07:15:13.601Z,2.37
2023-03-19T07:17:41.326Z,2.47
2023-03-19T07:20:09.984Z,2.27
2023-03-19T07:22:37.622Z,2.47
2023-03-19T07:25:06.195Z,2.10
2023-03-19T07:27:34.032Z,2.80
2023-03-19T07:30:01.792Z,2.17
2023-03-19T07:32:31.614Z,2.37
2023-03-19T07:34:59.399Z,1.97
2023-03-19T07:37:27.198Z,2.30
2023-03-19T07:39:54.925Z,2.27
2023-03-19T07:42:22.742Z,2.00
2023-03-19T07:44:50.427Z,2.50
2023-03-19T07:47:28.561Z,2.60
2023-03-19T07:49:58.763Z,1.90
2023-03-19T07:52:27.192Z,2.30
2023-03-19T07:54:55.233Z,2.00
2023-03-19T07:57:23.137Z,2.27
2023-03-19T07:59:51.089Z,2.30
2023-03-19T08:02:22.699Z,2.30
2023-03-19T08:04:50.886Z,2.30
2023-03-19T08:07:20.262Z,2.13
2023-03-19T08:09:52.399Z,2.20
2023-03-19T08:12:20.290Z,2.50
2023-03-19T08:14:48.066Z,2.10
2023-03-19T08:17:15.953Z,1.90
2023-03-19T08:19:43.811Z,1.90
2023-03-19T08:22:11.857Z,2.37
2023-03-19T08:24:46.174Z,2.30
2023-03-19T08:27:14.167Z,2.03
2023-03-19T08:29:42.042Z,2.13
2023-03-19T08:32:10.364Z,2.10
2023-03-19T08:34:38.118Z,2.50
2023-03-19T08:37:05.873Z,2.00
2023-03-19T08:39:33.624Z,1.93
2023-03-19T08:42:02.872Z,2.20
2023-03-19T08:44:30.674Z,2.23
2023-03-19T08:46:58.415Z,2.27
2023-03-19T08:49:26.284Z,2.40
2023-03-19T08:51:54.031Z,2.40
2023-03-19T08:54:23.032Z,2.70
2023-03-19T08:56:51.057Z,2.17
2023-03-19T08:59:20.271Z,2.70
2023-03-19T09:01:52.011Z,2.20
2023-03-19T09:04:20.003Z,2.30
2023-03-19T09:06:51.129Z,2.63
2023-03-19T09:09:19.643Z,2.20
2023-03-19T09:11:47.784Z,1.97
2023-03-19T09:14:16.675Z,2.07
2023-03-19T09:16:45.946Z,2.10
2023-03-19T09:19:13.689Z,2.13
2023-03-19T09:21:41.661Z,2.30
2023-03-19T09:24:10.014Z,2.57
2023-03-19T09:26:37.741Z,2.43
2023-03-19T09:29:05.459Z,2.40
2023-03-19T09:31:33.235Z,2.67
2023-03-19T09:34:02.791Z,3.20
2023-03-19T09:36:30.668Z,2.27
2023-03-19T09:38:58.883Z,2.53
2023-03-19T09:41:44.279Z,2.60
2023-03-19T09:44:15.514Z,2.93
2023-03-19T09:46:51.479Z,2.40
2023-03-19T09:49:26.146Z,2.70
2023-03-19T09:51:55.943Z,2.63
2023-03-19T09:54:33.941Z,2.83
2023-03-19T09:57:02.376Z,2.87
2023-03-19T09:59:31.110Z,2.60
2023-03-19T10:02:17.384Z,3.23
2023-03-19T10:05:01.555Z,2.57
2023-03-19T10:07:44.172Z,2.33
2023-03-19T10:10:27.953Z,2.07
2023-03-19T10:13:08.725Z,2.50
2023-03-19T10:15:38.881Z,1.87
2023-03-19T10:18:12.786Z,2.80
2023-03-19T10:20:49.210Z,1.47
2023-03-19T10:23:34.800Z,1.70
2023-03-19T10:26:05.569Z,2.27
2023-03-19T10:28:33.787Z,3.00
2023-03-19T10:31:14.062Z,2.40
2023-03-19T10:33:46.563Z,2.07
2023-03-19T10:36:16.433Z,2.33
2023-03-19T10:38:45.165Z,1.43
2023-03-19T10:41:24.604Z,2.37
2023-03-19T10:43:55.649Z,2.93
2023-03-19T10:46:23.791Z,1.97
2023-03-19T10:48:51.761Z,1.90
2023-03-19T10:51:26.085Z,2.43
2023-03-19T10:53:55.623Z,1.83
2023-03-19T10:56:25.993Z,2.40
2023-03-19T10:58:59.976Z,2.60
2023-03-19T11:01:30.883Z,2.50
2023-03-19T11:04:00.428Z,2.03
2023-03-19T11:06:34.040Z,1.93
2023-03-19T11:09:04.259Z,2.27
2023-03-19T11:11:38.078Z,2.17
2023-03-19T11:14:10.874Z,2.77
2023-03-19T11:16:49.435Z,2.70
2023-03-19T11:19:22.541Z,2.03
2023-03-19T11:22:10.416Z,2.27
2023-03-19T11:24:39.646Z,2.30
2023-03-19T11:27:08.404Z,2.70
2023-03-19T11:29:41.731Z,2.60
2023-03-19T11:32:22.872Z,2.30
2023-03-19T11:34:54.864Z,2.43
2023-03-19T11:37:34.725Z,2.80
2023-03-19T11:40:11.306Z,2.50
2023-03-19T11:42:52.480Z,2.10
2023-03-19T11:45:31.971Z,2.27
2023-03-19T11:48:21.541Z,1.97
2023-03-19T11:50:54.641Z,2.10
2023-03-19T11:53:29.147Z,2.20
2023-03-19T11:56:06.381Z,2.20
2023-03-19T11:58:56.026Z,2.50
2023-03-19T12:01:40.065Z,2.07
2023-03-19T12:04:23.980Z,2.10
2023-03-19T12:07:00.969Z,2.00
2023-03-19T12:09:37.755Z,2.03
2023-03-19T12:12:18.153Z,2.30
2023-03-19T12:14:57.474Z,2.53
2023-03-19T12:17:38.658Z,2.13
2023-03-19T12:20:20.891Z,2.40
2023-03-19T12:23:01.096Z,2.43
2023-03-19T12:25:45.564Z,1.90
2023-03-19T12:28:21.889Z,2.10
2023-03-19T12:31:02.714Z,2.30
2023-03-19T12:33:43.540Z,2.53
2023-03-19T12:36:16.368Z,2.17
2023-03-19T12:38:48.556Z,3.20
2023-03-19T12:41:23.336Z,2.60
2023-03-19T12:43:59.087Z,2.60
2023-03-19T12:46:32.983Z,2.90
2023-03-19T12:49:07.571Z,2.50
2023-03-19T12:51:39.375Z,2.60
2023-03-19T12:54:12.396Z,2.43
2023-03-19T12:56:49.660Z,2.47
2023-03-19T12:59:27.510Z,2.30
2023-03-19T13:02:00.863Z,2.13
2023-03-19T13:04:32.749Z,2.67
2023-03-19T13:07:04.605Z,2.33
2023-03-19T13:09:40.663Z,2.83
2023-03-19T13:12:14.075Z,2.60
2023-03-19T13:14:51.274Z,2.50
2023-03-19T13:17:28.036Z,3.03
2023-03-19T13:19:56.948Z,2.17
2023-03-19T13:22:28.688Z,1.97
2023-03-19T13:24:57.790Z,2.23
2023-03-19T13:27:31.088Z,2.07
2023-03-19T13:30:17.817Z,3.27
2023-03-19T13:32:49.357Z,2.60
2023-03-19T13:35:37.159Z,2.70
2023-03-19T13:38:11.487Z,2.23
2023-03-19T13:40:47.656Z,2.10
2023-03-19T13:43:56.631Z,1.90
2023-03-19T13:46:40.140Z,1.83
2023-03-19T13:49:35.476Z,2.00
2023-03-19T13:52:22.929Z,2.20
2023-03-19T13:54:54.432Z,1.40
2023-03-19T13:57:35.616Z,1.80
2023-03-19T14:00:41.546Z,1.47
2023-03-19T14:03:23.217Z,1.97
2023-03-19T14:05:53.767Z,1.90
2023-03-19T14:08:24.366Z,1.43
2023-03-19T14:10:54.906Z,2.13
2023-03-19T14:13:31.421Z,2.33
2023-03-19T14:16:08.208Z,2.27
2023-03-19T14:18:44.160Z,2.40
2023-03-19T14:21:18.921Z,1.93
2023-03-19T14:23:57.702Z,2.40
2023-03-19T14:26:29.435Z,2.20
2023-03-19T14:29:01.960Z,2.47
2023-03-19T14:31:35.383Z,2.43
2023-03-19T14:34:15.590Z,2.83
2023-03-19T14:36:47.561Z,2.50
2023-03-19T14:39:22.307Z,2.07
2023-03-19T14:41:56.678Z,2.60
2023-03-19T14:44:51.613Z,2.63
2023-03-19T14:47:38.389Z,2.40
2023-03-19T14:50:41.882Z,2.30
2023-03-19T14:53:17.165Z,2.33
2023-03-19T14:55:50.523Z,2.30
2023-03-19T14:58:19.984Z,2.20
2023-03-19T15:00:51.211Z,2.20
2023-03-19T15:03:29.128Z,2.10
2023-03-19T15:06:01.981Z,2.20
2023-03-19T15:08:32.391Z,2.90
2023-03-19T15:11:13.066Z,2.20
2023-03-19T15:13:54.975Z,2.23
2023-03-19T15:16:33.785Z,2.63
2023-03-19T15:19:02.164Z,1.90
2023-03-19T15:21:32.343Z,2.70
2023-03-19T15:24:00.455Z,1.83
2023-03-19T15:26:33.079Z,2.20
2023-03-19T15:29:04.179Z,2.03
2023-03-19T15:31:51.580Z,2.23
2023-03-19T15:34:23.407Z,2.57
2023-03-19T15:36:56.118Z,2.30
2023-03-19T15:39:27.294Z,2.30
2023-03-19T15:41:56.909Z,2.33
2023-03-19T15:44:41.649Z,1.70
2023-03-19T15:47:14.344Z,2.20
2023-03-19T15:49:45.967Z,1.90
2023-03-19T15:52:17.988Z,2.03
2023-03-19T15:54:46.259Z,1.87
2023-03-19T15:57:17.934Z,2.07
2023-03-19T15:59:47.061Z,2.20
2023-03-19T16:02:23.712Z,2.50
2023-03-19T16:05:18.344Z,2.90
2023-03-19T16:07:44.290Z,3.30
2023-03-19T16:10:40.213Z,3.07
2023-03-19T16:14:03.597Z,2.50
2023-03-19T16:16:59.152Z,2.13
2023-03-19T16:20:19.603Z,2.00
2023-03-19T16:26:50.274Z,2.83
2023-03-19T16:30:02.726Z,3.47
2023-03-19T16:35:56.770Z,2.50
2023-03-19T16:42:30.819Z,3.00
2023-03-19T16:51:51.918Z,3.60
2023-03-19T16:54:49.961Z,4.30
2023-03-19T16:57:19.139Z,3.70
2023-03-19T16:59:48.818Z,3.37
2023-03-19T17:02:23.686Z,4.10
2023-03-19T17:04:52.748Z,3.70
2023-03-19T17:07:21.454Z,3.67
2023-03-19T17:09:50.823Z,3.73
2023-03-19T17:12:20.477Z,3.07
2023-03-19T17:14:53.430Z,3.03
2023-03-19T17:17:23.407Z,3.60
2023-03-19T17:19:51.575Z,3.90
2023-03-19T17:22:19.386Z,3.37
2023-03-19T17:24:47.635Z,3.90
2023-03-19T17:27:15.943Z,3.47
2023-03-19T17:29:43.724Z,4.03
2023-03-19T17:32:17.981Z,3.80
2023-03-19T17:34:47.779Z,4.07
2023-03-19T17:37:15.801Z,3.70
2023-03-19T17:39:45.931Z,3.40
2023-03-19T17:42:20.158Z,4.00
2023-03-19T17:44:48.137Z,3.17
2023-03-19T17:47:17.963Z,3.53
2023-03-19T17:49:47.544Z,3.70
2023-03-19T17:52:17.711Z,3.10
2023-03-19T17:54:45.967Z,4.23
2023-03-19T17:57:15.673Z,3.50
2023-03-19T17:59:43.840Z,2.30
2023-03-19T18:02:24.397Z,2.87
2023-03-19T18:04:53.885Z,2.10
2023-03-19T18:07:21.671Z,2.20
2023-03-19T18:09:49.617Z,2.60
2023-03-19T18:12:17.730Z,2.83
2023-03-19T18:14:46.020Z,1.93
2023-03-19T18:17:17.005Z,2.63
2023-03-19T18:19:47.771Z,2.10
2023-03-19T18:22:18.524Z,2.30
2023-03-19T18:24:46.840Z,2.57
2023-03-19T18:27:14.753Z,2.80
2023-03-19T18:32:17.267Z,2.33
2023-03-19T18:34:46.296Z,3.50
2023-03-19T18:37:18.970Z,2.93
2023-03-19T18:39:47.287Z,2.40
2023-03-19T18:42:17.354Z,2.80
2023-03-19T18:44:45.949Z,2.83
2023-03-19T18:47:16.855Z,3.80
2023-03-19T18:49:45.219Z,2.37
2023-03-19T18:52:17.261Z,2.70
2023-03-19T18:54:48.611Z,2.40
2023-03-19T18:57:17.630Z,2.40
2023-03-19T18:59:46.206Z,2.00
2023-03-19T19:02:31.425Z,1.80
2023-03-19T19:05:00.612Z,1.70
2023-03-19T19:07:28.510Z,2.67
2023-03-19T19:09:58.302Z,1.97
2023-03-19T19:12:27.540Z,2.13
2023-03-19T19:14:55.344Z,2.30
2023-03-19T19:17:24.831Z,2.13
2023-03-19T19:19:52.755Z,2.23
2023-03-19T19:22:21.194Z,2.40
2023-03-19T19:24:49.308Z,3.10
2023-03-19T19:27:21.295Z,1.70
2023-03-19T19:29:50.498Z,1.70
2023-03-19T19:32:25.855Z,2.00
2023-03-19T19:34:54.429Z,1.80
2023-03-19T19:37:23.620Z,1.70
2023-03-19T19:39:52.134Z,2.00
2023-03-19T19:42:23.330Z,2.37
2023-03-19T19:44:54.392Z,2.00
2023-03-19T19:47:22.166Z,2.88
2023-03-19T19:49:50.041Z,2.00
2023-03-19T19:52:23.242Z,1.90
2023-03-19T19:54:52.902Z,1.87
2023-03-19T19:57:25.052Z,1.60
2023-03-19T19:59:56.136Z,2.00
2023-03-19T20:02:29.863Z,2.30
2023-03-19T20:04:58.942Z,2.40
2023-03-19T20:07:27.882Z,4.40
2023-03-19T20:09:56.180Z,4.83
2023-03-19T20:12:29.332Z,3.77
2023-03-19T20:14:59.685Z,2.30
2023-03-19T20:17:28.601Z,3.80
2023-03-19T20:19:56.884Z,5.13
2023-03-19T20:22:25.644Z,4.50
2023-03-19T20:24:54.408Z,4.83
2023-03-19T20:27:29.890Z,6.10
2023-03-19T20:29:58.926Z,6.53
2023-03-19T20:32:32.734Z,6.00
2023-03-19T20:35:01.007Z,5.63
2023-03-19T20:37:29.672Z,5.57
2023-03-19T20:39:57.549Z,6.03
2023-03-19T20:42:32.345Z,5.17
2023-03-19T20:45:01.490Z,5.30
2023-03-19T20:47:32.902Z,4.90
2023-03-19T20:50:01.165Z,6.40
2023-03-19T20:52:29.793Z,4.50
2023-03-19T20:54:58.186Z,4.40
2023-03-19T20:57:31.963Z,3.87
2023-03-19T21:00:03.690Z,4.30
2023-03-19T21:02:31.537Z,4.65
2023-03-19T21:04:59.327Z,4.87
2023-03-19T21:07:30.714Z,4.83
2023-03-19T21:09:59.411Z,5.73
2023-03-19T21:12:31.637Z,6.57
2023-03-19T21:15:00.964Z,6.67
2023-03-19T21:17:29.510Z,6.57
2023-03-19T21:19:57.676Z,6.60
2023-03-19T21:22:28.728Z,6.50
2023-03-19T21:25:04.081Z,5.73
2023-03-19T21:27:36.491Z,6.03
2023-03-19T21:30:06.669Z,7.27
2023-03-19T21:32:34.480Z,6.40
2023-03-19T21:35:02.470Z,5.87
2023-03-19T21:37:30.497Z,6.40
2023-03-19T21:39:58.332Z,6.77
2023-03-19T21:42:26.700Z,7.20
2023-03-19T21:44:59.885Z,7.17
2023-03-19T21:47:27.737Z,8.00
2023-03-19T21:49:56.595Z,7.30
2023-03-19T21:52:24.369Z,7.40
2023-03-19T21:54:52.355Z,8.47
2023-03-19T21:57:20.162Z,7.00
2023-03-19T21:59:48.491Z,7.80
2023-03-19T22:02:41.450Z,6.75
2023-03-19T22:05:16.943Z,6.63
2023-03-19T22:07:44.752Z,7.20
2023-03-19T22:10:13.107Z,7.83
2023-03-19T22:12:42.438Z,7.70
2023-03-19T22:15:29.916Z,7.38
2023-03-19T22:18:00.903Z,6.80
2023-03-19T22:20:29.393Z,7.25
2023-03-19T22:22:58.242Z,7.60
2023-03-19T22:25:31.141Z,6.43
2023-03-19T22:27:59.484Z,7.10
2023-03-19T22:30:35.803Z,9.10
2023-03-19T22:33:14.324Z,7.67
2023-03-19T22:35:42.290Z,6.70
2023-03-19T22:38:10.323Z,6.83
2023-03-19T22:40:39.371Z,7.10
2023-03-19T22:43:17.366Z,7.17
2023-03-19T22:45:45.474Z,6.57
2023-03-19T22:48:17.969Z,6.40
2023-03-19T22:50:45.799Z,6.67
2023-03-19T22:53:22.326Z,6.85
2023-03-19T22:55:50.213Z,5.50
2023-03-19T22:58:17.971Z,9.20
2023-03-19T23:00:46.715Z,6.60
2023-03-19T23:03:21.314Z,6.80
2023-03-19T23:05:53.251Z,5.30
2023-03-19T23:08:26.864Z,4.82
2023-03-19T23:10:55.041Z,4.43
2023-03-19T23:13:23.439Z,4.95
2023-03-19T23:15:56.607Z,4.32
2023-03-19T23:18:30.340Z,4.05
2023-03-19T23:20:58.472Z,4.60
2023-03-19T23:23:27.269Z,4.55
2023-03-19T23:25:55.953Z,4.90
2023-03-19T23:28:25.853Z,4.70
2023-03-19T23:30:54.033Z,4.53
2023-03-19T23:33:22.272Z,4.85
2023-03-19T23:35:51.313Z,5.20
2023-03-19T23:38:19.064Z,4.43
2023-03-19T23:40:47.447Z,4.45
2023-03-19T23:43:19.647Z,4.10
2023-03-19T23:45:48.260Z,3.95
2023-03-19T23:48:18.088Z,4.10
2023-03-19T23:50:47.024Z,4.35
2023-03-19T23:53:21.939Z,4.10
2023-03-19T23:55:52.283Z,4.10
2023-03-19T23:58:20.768Z,4.60
